sensor_id;sensor_type;location;lat;lon;timestamp;temperature;humidity
10459;DHT22;5277;48.722;8.736;2024-03-07T00:02:09;7.40;99.90
10459;DHT22;5277;48.722;8.736;2024-03-07T00:04:35;7.40;99.90
10459;DHT22;5277;48.722;8.736;2024-03-07T00:07:03;7.40;99.90
10459;DHT22;5277;48.722;8.736;2024-03-07T00:09:33;7.40;99.90
10459;DHT22;5277;48.722;8.736;2024-03-07T00:12:00;7.40;99.90
10459;DHT22;5277;48.722;8.736;2024-03-07T00:14:26;7.40;99.90
10459;DHT22;5277;48.722;8.736;2024-03-07T00:16:58;7.40;99.90
10459;DHT22;5277;48.722;8.736;2024-03-07T00:19:25;7.50;99.90
10459;DHT22;5277;48.722;8.736;2024-03-07T00:21:53;7.40;99.90
10459;DHT22;5277;48.722;8.736;2024-03-07T00:24:22;7.50;99.90
10459;DHT22;5277;48.722;8.736;2024-03-07T00:26:48;7.50;99.90
10459;DHT22;5277;48.722;8.736;2024-03-07T00:29:18;7.50;99.90
10459;DHT22;5277;48.722;8.736;2024-03-07T00:31:45;7.50;99.90
10459;DHT22;5277;48.722;8.736;2024-03-07T00:34:15;7.50;99.90
10459;DHT22;5277;48.722;8.736;2024-03-07T00:36:45;7.50;99.90
10459;DHT22;5277;48.722;8.736;2024-03-07T00:39:11;7.50;99.90
10459;DHT22;5277;48.722;8.736;2024-03-07T00:41:40;7.50;99.90
10459;DHT22;5277;48.722;8.736;2024-03-07T00:44:09;7.50;99.90
10459;DHT22;5277;48.722;8.736;2024-03-07T00:46:36;7.50;99.90
10459;DHT22;5277;48.722;8.736;2024-03-07T00:49:02;7.50;99.90
10459;DHT22;5277;48.722;8.736;2024-03-07T00:51:27;7.50;99.90
10459;DHT22;5277;48.722;8.736;2024-03-07T00:53:54;7.50;99.90
10459;DHT22;5277;48.722;8.736;2024-03-07T00:56:20;7.50;99.90
10459;DHT22;5277;48.722;8.736;2024-03-07T00:58:49;7.60;99.90
10459;DHT22;5277;48.722;8.736;2024-03-07T01:01:15;7.50;99.90
10459;DHT22;5277;48.722;8.736;2024-03-07T01:03:42;7.50;99.90
10459;DHT22;5277;48.722;8.736;2024-03-07T01:06:08;7.50;99.90
10459;DHT22;5277;48.722;8.736;2024-03-07T01:08:36;7.50;99.90
10459;DHT22;5277;48.722;8.736;2024-03-07T01:11:05;7.50;99.90
10459;DHT22;5277;48.722;8.736;2024-03-07T01:13:41;7.50;99.90
10459;DHT22;5277;48.722;8.736;2024-03-07T01:16:07;7.50;99.90
10459;DHT22;5277;48.722;8.736;2024-03-07T01:18:33;7.50;99.90
10459;DHT22;5277;48.722;8.736;2024-03-07T01:21:02;7.50;99.90
10459;DHT22;5277;48.722;8.736;2024-03-07T01:23:28;7.50;99.90
10459;DHT22;5277;48.722;8.736;2024-03-07T01:25:57;7.50;99.90
10459;DHT22;5277;48.722;8.736;2024-03-07T01:28:25;7.40;99.90
10459;DHT22;5277;48.722;8.736;2024-03-07T01:30:51;7.40;99.90
10459;DHT22;5277;48.722;8.736;2024-03-07T01:33:17;7.40;99.90
10459;DHT22;5277;48.722;8.736;2024-03-07T01:35:42;7.30;99.90
10459;DHT22;5277;48.722;8.736;2024-03-07T01:38:08;7.30;99.90
10459;DHT22;5277;48.722;8.736;2024-03-07T01:40:36;7.30;99.90
10459;DHT22;5277;48.722;8.736;2024-03-07T01:43:02;7.20;99.90
10459;DHT22;5277;48.722;8.736;2024-03-07T01:45:28;7.20;99.90
10459;DHT22;5277;48.722;8.736;2024-03-07T01:47:54;7.10;99.90
10459;DHT22;5277;48.722;8.736;2024-03-07T01:50:21;7.10;99.90
10459;DHT22;5277;48.722;8.736;2024-03-07T01:52:47;7.10;99.90
10459;DHT22;5277;48.722;8.736;2024-03-07T01:55:15;7.00;99.90
10459;DHT22;5277;48.722;8.736;2024-03-07T01:57:41;6.90;99.90
10459;DHT22;5277;48.722;8.736;2024-03-07T02:00:07;6.80;99.90
10459;DHT22;5277;48.722;8.736;2024-03-07T02:02:34;6.80;99.90
10459;DHT22;5277;48.722;8.736;2024-03-07T02:05:00;6.80;99.90
10459;DHT22;5277;48.722;8.736;2024-03-07T02:07:26;6.70;99.90
10459;DHT22;5277;48.722;8.736;2024-03-07T02:10:12;6.60;99.90
10459;DHT22;5277;48.722;8.736;2024-03-07T02:12:38;6.60;99.90
10459;DHT22;5277;48.722;8.736;2024-03-07T02:15:04;6.50;99.90
10459;DHT22;5277;48.722;8.736;2024-03-07T02:17:30;6.50;99.90
10459;DHT22;5277;48.722;8.736;2024-03-07T02:19:55;6.50;99.90
10459;DHT22;5277;48.722;8.736;2024-03-07T02:22:21;6.30;99.90
10459;DHT22;5277;48.722;8.736;2024-03-07T02:24:47;6.30;99.90
10459;DHT22;5277;48.722;8.736;2024-03-07T02:27:13;6.20;99.90
10459;DHT22;5277;48.722;8.736;2024-03-07T02:29:40;6.10;99.90
10459;DHT22;5277;48.722;8.736;2024-03-07T02:32:06;6.10;99.90
10459;DHT22;5277;48.722;8.736;2024-03-07T02:34:32;6.10;99.90
10459;DHT22;5277;48.722;8.736;2024-03-07T02:36:57;6.00;99.90
10459;DHT22;5277;48.722;8.736;2024-03-07T02:39:23;6.00;99.90
10459;DHT22;5277;48.722;8.736;2024-03-07T02:41:50;6.00;99.90
10459;DHT22;5277;48.722;8.736;2024-03-07T02:44:16;6.00;99.90
10459;DHT22;5277;48.722;8.736;2024-03-07T02:46:42;6.00;99.90
10459;DHT22;5277;48.722;8.736;2024-03-07T02:49:07;6.00;99.90
10459;DHT22;5277;48.722;8.736;2024-03-07T02:51:33;5.90;99.90
10459;DHT22;5277;48.722;8.736;2024-03-07T02:53:58;5.90;99.90
10459;DHT22;5277;48.722;8.736;2024-03-07T02:56:24;5.80;99.90
10459;DHT22;5277;48.722;8.736;2024-03-07T02:58:53;5.80;99.90
10459;DHT22;5277;48.722;8.736;2024-03-07T03:01:18;5.70;99.90
10459;DHT22;5277;48.722;8.736;2024-03-07T03:03:44;5.60;99.90
10459;DHT22;5277;48.722;8.736;2024-03-07T03:06:10;5.60;99.90
10459;DHT22;5277;48.722;8.736;2024-03-07T03:08:36;5.50;99.90
10459;DHT22;5277;48.722;8.736;2024-03-07T03:11:02;5.50;99.90
10459;DHT22;5277;48.722;8.736;2024-03-07T03:13:27;5.50;99.90
10459;DHT22;5277;48.722;8.736;2024-03-07T03:15:56;5.50;99.90
10459;DHT22;5277;48.722;8.736;2024-03-07T03:18:22;5.60;99.90
10459;DHT22;5277;48.722;8.736;2024-03-07T03:20:52;5.60;99.90
10459;DHT22;5277;48.722;8.736;2024-03-07T03:23:21;5.60;99.90
10459;DHT22;5277;48.722;8.736;2024-03-07T03:25:47;5.60;99.90
10459;DHT22;5277;48.722;8.736;2024-03-07T03:28:13;5.70;99.90
10459;DHT22;5277;48.722;8.736;2024-03-07T03:30:40;5.70;99.90
10459;DHT22;5277;48.722;8.736;2024-03-07T03:33:07;5.70;99.90
10459;DHT22;5277;48.722;8.736;2024-03-07T03:35:34;5.70;99.90
10459;DHT22;5277;48.722;8.736;2024-03-07T03:37:59;5.70;99.90
10459;DHT22;5277;48.722;8.736;2024-03-07T03:40:25;5.70;99.90
10459;DHT22;5277;48.722;8.736;2024-03-07T03:42:51;5.70;99.90
10459;DHT22;5277;48.722;8.736;2024-03-07T03:45:17;5.60;99.90
10459;DHT22;5277;48.722;8.736;2024-03-07T03:47:43;5.60;99.90
10459;DHT22;5277;48.722;8.736;2024-03-07T03:50:10;5.60;99.90
10459;DHT22;5277;48.722;8.736;2024-03-07T03:52:40;5.50;99.90
10459;DHT22;5277;48.722;8.736;2024-03-07T03:55:06;5.50;99.90
10459;DHT22;5277;48.722;8.736;2024-03-07T03:57:33;5.50;99.90
10459;DHT22;5277;48.722;8.736;2024-03-07T03:59:59;5.50;99.90
10459;DHT22;5277;48.722;8.736;2024-03-07T04:02:26;5.50;99.90
10459;DHT22;5277;48.722;8.736;2024-03-07T04:04:52;5.50;99.90
10459;DHT22;5277;48.722;8.736;2024-03-07T04:07:18;5.50;99.90
10459;DHT22;5277;48.722;8.736;2024-03-07T04:09:47;5.40;99.90
10459;DHT22;5277;48.722;8.736;2024-03-07T04:12:13;5.40;99.90
10459;DHT22;5277;48.722;8.736;2024-03-07T04:14:39;5.40;99.90
10459;DHT22;5277;48.722;8.736;2024-03-07T04:17:06;5.30;99.90
10459;DHT22;5277;48.722;8.736;2024-03-07T04:19:35;5.30;99.90
10459;DHT22;5277;48.722;8.736;2024-03-07T04:22:01;5.30;99.90
10459;DHT22;5277;48.722;8.736;2024-03-07T04:24:29;5.30;99.90
10459;DHT22;5277;48.722;8.736;2024-03-07T04:26:55;5.20;99.90
10459;DHT22;5277;48.722;8.736;2024-03-07T04:29:20;5.20;99.90
10459;DHT22;5277;48.722;8.736;2024-03-07T04:31:46;5.10;99.90
10459;DHT22;5277;48.722;8.736;2024-03-07T04:34:11;5.00;99.90
10459;DHT22;5277;48.722;8.736;2024-03-07T04:36:37;5.00;99.90
10459;DHT22;5277;48.722;8.736;2024-03-07T04:39:03;5.00;99.90
10459;DHT22;5277;48.722;8.736;2024-03-07T04:41:30;5.00;99.90
10459;DHT22;5277;48.722;8.736;2024-03-07T04:43:55;5.00;99.90
10459;DHT22;5277;48.722;8.736;2024-03-07T04:46:21;5.00;99.90
10459;DHT22;5277;48.722;8.736;2024-03-07T04:48:46;5.00;99.90
10459;DHT22;5277;48.722;8.736;2024-03-07T04:51:12;5.00;99.90
10459;DHT22;5277;48.722;8.736;2024-03-07T04:53:38;5.00;99.90
10459;DHT22;5277;48.722;8.736;2024-03-07T04:56:07;5.10;99.90
10459;DHT22;5277;48.722;8.736;2024-03-07T04:58:35;5.10;99.90
10459;DHT22;5277;48.722;8.736;2024-03-07T05:01:01;5.10;99.90
10459;DHT22;5277;48.722;8.736;2024-03-07T05:03:27;5.20;99.90
10459;DHT22;5277;48.722;8.736;2024-03-07T05:05:53;5.10;99.90
10459;DHT22;5277;48.722;8.736;2024-03-07T05:08:18;5.10;99.90
10459;DHT22;5277;48.722;8.736;2024-03-07T05:10:44;5.10;99.90
10459;DHT22;5277;48.722;8.736;2024-03-07T05:13:10;5.10;99.90
10459;DHT22;5277;48.722;8.736;2024-03-07T05:15:36;5.10;99.90
10459;DHT22;5277;48.722;8.736;2024-03-07T05:18:02;5.00;99.90
10459;DHT22;5277;48.722;8.736;2024-03-07T05:20:27;5.00;99.90
10459;DHT22;5277;48.722;8.736;2024-03-07T05:22:54;5.00;99.90
10459;DHT22;5277;48.722;8.736;2024-03-07T05:25:20;5.00;99.90
10459;DHT22;5277;48.722;8.736;2024-03-07T05:27:47;5.00;99.90
10459;DHT22;5277;48.722;8.736;2024-03-07T05:30:15;5.00;99.90
10459;DHT22;5277;48.722;8.736;2024-03-07T05:32:41;5.00;99.90
10459;DHT22;5277;48.722;8.736;2024-03-07T05:35:07;5.00;99.90
10459;DHT22;5277;48.722;8.736;2024-03-07T05:37:33;4.90;99.90
10459;DHT22;5277;48.722;8.736;2024-03-07T05:39:59;4.80;99.90
10459;DHT22;5277;48.722;8.736;2024-03-07T05:42:25;4.80;99.90
10459;DHT22;5277;48.722;8.736;2024-03-07T05:44:51;4.70;99.90
10459;DHT22;5277;48.722;8.736;2024-03-07T05:47:17;4.60;99.90
10459;DHT22;5277;48.722;8.736;2024-03-07T05:49:43;4.50;99.90
10459;DHT22;5277;48.722;8.736;2024-03-07T05:52:09;4.50;99.90
10459;DHT22;5277;48.722;8.736;2024-03-07T05:54:35;4.40;99.90
10459;DHT22;5277;48.722;8.736;2024-03-07T05:57:01;4.30;99.90
10459;DHT22;5277;48.722;8.736;2024-03-07T05:59:26;4.20;99.90
10459;DHT22;5277;48.722;8.736;2024-03-07T06:01:56;4.10;99.90
10459;DHT22;5277;48.722;8.736;2024-03-07T06:04:21;4.00;99.90
10459;DHT22;5277;48.722;8.736;2024-03-07T06:06:47;4.00;99.90
10459;DHT22;5277;48.722;8.736;2024-03-07T06:09:14;3.90;99.90
10459;DHT22;5277;48.722;8.736;2024-03-07T06:11:40;3.90;99.90
10459;DHT22;5277;48.722;8.736;2024-03-07T06:14:08;3.90;99.90
10459;DHT22;5277;48.722;8.736;2024-03-07T06:16:36;3.80;99.90
10459;DHT22;5277;48.722;8.736;2024-03-07T06:19:02;3.80;99.90
10459;DHT22;5277;48.722;8.736;2024-03-07T06:21:29;3.70;99.90
10459;DHT22;5277;48.722;8.736;2024-03-07T06:23:59;3.80;99.90
10459;DHT22;5277;48.722;8.736;2024-03-07T06:26:35;3.80;99.90
10459;DHT22;5277;48.722;8.736;2024-03-07T06:29:10;3.80;99.90
10459;DHT22;5277;48.722;8.736;2024-03-07T06:31:37;3.80;99.90
10459;DHT22;5277;48.722;8.736;2024-03-07T06:34:03;3.70;99.90
10459;DHT22;5277;48.722;8.736;2024-03-07T06:36:29;3.70;99.90
10459;DHT22;5277;48.722;8.736;2024-03-07T06:38:55;3.80;99.90
10459;DHT22;5277;48.722;8.736;2024-03-07T06:41:20;3.80;99.90
10459;DHT22;5277;48.722;8.736;2024-03-07T06:43:46;3.80;99.90
10459;DHT22;5277;48.722;8.736;2024-03-07T06:46:12;3.80;99.90
10459;DHT22;5277;48.722;8.736;2024-03-07T06:48:41;3.80;99.90
10459;DHT22;5277;48.722;8.736;2024-03-07T06:51:07;3.90;99.90
10459;DHT22;5277;48.722;8.736;2024-03-07T06:53:32;3.90;99.90
10459;DHT22;5277;48.722;8.736;2024-03-07T06:55:58;3.90;99.90
10459;DHT22;5277;48.722;8.736;2024-03-07T06:58:24;4.00;99.90
10459;DHT22;5277;48.722;8.736;2024-03-07T07:00:50;4.00;99.90
10459;DHT22;5277;48.722;8.736;2024-03-07T07:03:19;4.00;99.90
10459;DHT22;5277;48.722;8.736;2024-03-07T07:05:45;4.00;99.90
10459;DHT22;5277;48.722;8.736;2024-03-07T07:08:11;4.10;99.90
10459;DHT22;5277;48.722;8.736;2024-03-07T07:10:39;4.10;99.90
10459;DHT22;5277;48.722;8.736;2024-03-07T07:13:09;4.20;99.90
10459;DHT22;5277;48.722;8.736;2024-03-07T07:15:35;4.20;99.90
10459;DHT22;5277;48.722;8.736;2024-03-07T07:18:02;4.20;99.90
10459;DHT22;5277;48.722;8.736;2024-03-07T07:20:28;4.20;99.90
10459;DHT22;5277;48.722;8.736;2024-03-07T07:22:54;4.30;99.90
10459;DHT22;5277;48.722;8.736;2024-03-07T07:25:22;4.30;99.90
10459;DHT22;5277;48.722;8.736;2024-03-07T07:27:51;4.40;99.90
10459;DHT22;5277;48.722;8.736;2024-03-07T07:30:21;4.40;99.90
10459;DHT22;5277;48.722;8.736;2024-03-07T07:32:53;4.50;99.90
10459;DHT22;5277;48.722;8.736;2024-03-07T07:35:19;4.60;99.90
10459;DHT22;5277;48.722;8.736;2024-03-07T07:37:48;4.70;99.90
10459;DHT22;5277;48.722;8.736;2024-03-07T07:40:16;4.80;99.90
10459;DHT22;5277;48.722;8.736;2024-03-07T07:42:46;4.80;99.90
10459;DHT22;5277;48.722;8.736;2024-03-07T07:45:13;4.80;99.90
10459;DHT22;5277;48.722;8.736;2024-03-07T07:47:39;4.90;99.90
10459;DHT22;5277;48.722;8.736;2024-03-07T07:50:09;5.00;99.90
10459;DHT22;5277;48.722;8.736;2024-03-07T07:52:58;5.00;99.90
10459;DHT22;5277;48.722;8.736;2024-03-07T07:55:25;5.10;99.90
10459;DHT22;5277;48.722;8.736;2024-03-07T07:57:56;5.10;99.90
10459;DHT22;5277;48.722;8.736;2024-03-07T08:00:25;5.20;99.90
10459;DHT22;5277;48.722;8.736;2024-03-07T08:02:58;5.30;99.90
10459;DHT22;5277;48.722;8.736;2024-03-07T08:05:29;5.40;99.90
10459;DHT22;5277;48.722;8.736;2024-03-07T08:07:56;5.50;99.90
10459;DHT22;5277;48.722;8.736;2024-03-07T08:10:29;5.50;99.90
10459;DHT22;5277;48.722;8.736;2024-03-07T08:12:55;5.60;99.90
10459;DHT22;5277;48.722;8.736;2024-03-07T08:15:21;5.70;99.90
10459;DHT22;5277;48.722;8.736;2024-03-07T08:17:47;5.80;99.90
10459;DHT22;5277;48.722;8.736;2024-03-07T08:20:15;6.00;99.90
10459;DHT22;5277;48.722;8.736;2024-03-07T08:22:42;6.00;99.90
10459;DHT22;5277;48.722;8.736;2024-03-07T08:25:11;6.10;99.90
10459;DHT22;5277;48.722;8.736;2024-03-07T08:27:42;6.20;99.90
10459;DHT22;5277;48.722;8.736;2024-03-07T08:30:10;6.30;99.90
10459;DHT22;5277;48.722;8.736;2024-03-07T08:32:39;6.40;99.90
10459;DHT22;5277;48.722;8.736;2024-03-07T08:35:05;6.40;99.90
10459;DHT22;5277;48.722;8.736;2024-03-07T08:37:35;6.40;99.90
10459;DHT22;5277;48.722;8.736;2024-03-07T08:40:02;6.50;99.90
10459;DHT22;5277;48.722;8.736;2024-03-07T08:42:30;6.40;99.90
10459;DHT22;5277;48.722;8.736;2024-03-07T08:44:57;6.40;99.90
10459;DHT22;5277;48.722;8.736;2024-03-07T08:47:23;6.40;99.90
10459;DHT22;5277;48.722;8.736;2024-03-07T08:49:49;6.40;99.90
10459;DHT22;5277;48.722;8.736;2024-03-07T08:52:14;6.50;99.90
10459;DHT22;5277;48.722;8.736;2024-03-07T08:54:40;6.60;99.90
10459;DHT22;5277;48.722;8.736;2024-03-07T08:57:05;6.70;99.90
10459;DHT22;5277;48.722;8.736;2024-03-07T08:59:32;6.80;99.90
10459;DHT22;5277;48.722;8.736;2024-03-07T09:01:59;6.80;99.90
10459;DHT22;5277;48.722;8.736;2024-03-07T09:04:27;6.80;99.90
10459;DHT22;5277;48.722;8.736;2024-03-07T09:06:54;6.80;99.90
10459;DHT22;5277;48.722;8.736;2024-03-07T09:09:20;6.80;99.90
10459;DHT22;5277;48.722;8.736;2024-03-07T09:11:45;6.90;99.60
10459;DHT22;5277;48.722;8.736;2024-03-07T09:14:11;6.90;99.90
10459;DHT22;5277;48.722;8.736;2024-03-07T09:16:37;6.80;99.80
10459;DHT22;5277;48.722;8.736;2024-03-07T09:19:03;6.70;99.90
10459;DHT22;5277;48.722;8.736;2024-03-07T09:21:29;6.70;99.40
10459;DHT22;5277;48.722;8.736;2024-03-07T09:23:55;6.60;99.80
10459;DHT22;5277;48.722;8.736;2024-03-07T09:26:20;6.60;99.90
10459;DHT22;5277;48.722;8.736;2024-03-07T09:28:46;6.50;99.70
10459;DHT22;5277;48.722;8.736;2024-03-07T09:31:14;6.50;99.90
10459;DHT22;5277;48.722;8.736;2024-03-07T09:33:40;6.50;99.60
10459;DHT22;5277;48.722;8.736;2024-03-07T09:36:05;6.60;99.90
10459;DHT22;5277;48.722;8.736;2024-03-07T09:38:32;6.70;99.90
10459;DHT22;5277;48.722;8.736;2024-03-07T09:40:58;6.80;99.90
10459;DHT22;5277;48.722;8.736;2024-03-07T09:43:26;6.80;99.90
10459;DHT22;5277;48.722;8.736;2024-03-07T09:45:54;6.80;99.90
10459;DHT22;5277;48.722;8.736;2024-03-07T09:48:21;6.90;99.90
10459;DHT22;5277;48.722;8.736;2024-03-07T09:50:50;6.80;99.50
10459;DHT22;5277;48.722;8.736;2024-03-07T09:53:18;6.90;99.90
10459;DHT22;5277;48.722;8.736;2024-03-07T09:55:45;6.80;99.50
10459;DHT22;5277;48.722;8.736;2024-03-07T09:58:12;6.90;99.70
10459;DHT22;5277;48.722;8.736;2024-03-07T10:00:42;6.90;99.60
10459;DHT22;5277;48.722;8.736;2024-03-07T10:03:12;7.00;99.10
10459;DHT22;5277;48.722;8.736;2024-03-07T10:05:39;6.90;98.90
10459;DHT22;5277;48.722;8.736;2024-03-07T10:08:06;6.90;99.30
10459;DHT22;5277;48.722;8.736;2024-03-07T10:10:36;6.90;99.70
10459;DHT22;5277;48.722;8.736;2024-03-07T10:13:02;6.90;99.80
10459;DHT22;5277;48.722;8.736;2024-03-07T10:15:32;6.90;99.80
10459;DHT22;5277;48.722;8.736;2024-03-07T10:17:59;6.90;99.40
10459;DHT22;5277;48.722;8.736;2024-03-07T10:20:25;7.00;99.90
10459;DHT22;5277;48.722;8.736;2024-03-07T10:22:52;7.00;99.70
10459;DHT22;5277;48.722;8.736;2024-03-07T10:25:18;7.00;99.70
10459;DHT22;5277;48.722;8.736;2024-03-07T10:27:46;7.10;99.60
10459;DHT22;5277;48.722;8.736;2024-03-07T10:30:14;7.10;99.30
10459;DHT22;5277;48.722;8.736;2024-03-07T10:32:55;7.10;99.20
10459;DHT22;5277;48.722;8.736;2024-03-07T10:35:22;7.10;99.40
10459;DHT22;5277;48.722;8.736;2024-03-07T10:37:53;7.20;99.50
10459;DHT22;5277;48.722;8.736;2024-03-07T10:40:20;7.20;99.60
10459;DHT22;5277;48.722;8.736;2024-03-07T10:42:48;7.20;99.40
10459;DHT22;5277;48.722;8.736;2024-03-07T10:45:20;7.30;99.50
10459;DHT22;5277;48.722;8.736;2024-03-07T10:47:58;7.30;99.60
10459;DHT22;5277;48.722;8.736;2024-03-07T10:53:32;7.40;99.60
10459;DHT22;5277;48.722;8.736;2024-03-07T10:56:06;7.40;99.80
10459;DHT22;5277;48.722;8.736;2024-03-07T11:01:41;7.50;99.60
10459;DHT22;5277;48.722;8.736;2024-03-07T11:04:08;7.50;99.90
10459;DHT22;5277;48.722;8.736;2024-03-07T11:06:34;7.40;99.90
10459;DHT22;5277;48.722;8.736;2024-03-07T11:09:01;7.40;99.90
10459;DHT22;5277;48.722;8.736;2024-03-07T11:11:29;7.60;99.90
10459;DHT22;5277;48.722;8.736;2024-03-07T11:13:55;7.50;99.80
10459;DHT22;5277;48.722;8.736;2024-03-07T11:16:24;7.50;98.80
10459;DHT22;5277;48.722;8.736;2024-03-07T11:21:50;7.60;99.60
10459;DHT22;5277;48.722;8.736;2024-03-07T11:24:29;7.60;99.60
10459;DHT22;5277;48.722;8.736;2024-03-07T11:26:58;7.70;99.80
10459;DHT22;5277;48.722;8.736;2024-03-07T11:29:48;7.70;98.90
10459;DHT22;5277;48.722;8.736;2024-03-07T11:32:18;7.70;99.20
10459;DHT22;5277;48.722;8.736;2024-03-07T11:34:47;7.80;99.40
10459;DHT22;5277;48.722;8.736;2024-03-07T11:37:20;7.80;99.30
10459;DHT22;5277;48.722;8.736;2024-03-07T11:40:02;7.80;99.20
10459;DHT22;5277;48.722;8.736;2024-03-07T11:42:34;7.90;99.20
10459;DHT22;5277;48.722;8.736;2024-03-07T11:45:02;8.00;99.40
10459;DHT22;5277;48.722;8.736;2024-03-07T11:47:38;8.10;99.20
10459;DHT22;5277;48.722;8.736;2024-03-07T11:50:05;8.20;98.80
10459;DHT22;5277;48.722;8.736;2024-03-07T11:52:34;8.20;98.80
10459;DHT22;5277;48.722;8.736;2024-03-07T11:55:02;8.30;98.40
10459;DHT22;5277;48.722;8.736;2024-03-07T11:57:30;8.30;98.40
10459;DHT22;5277;48.722;8.736;2024-03-07T12:00:00;8.20;98.70
10459;DHT22;5277;48.722;8.736;2024-03-07T12:02:44;8.20;98.40
10459;DHT22;5277;48.722;8.736;2024-03-07T12:05:09;8.30;98.40
10459;DHT22;5277;48.722;8.736;2024-03-07T12:07:35;8.30;98.60
10459;DHT22;5277;48.722;8.736;2024-03-07T12:10:03;8.30;97.70
10459;DHT22;5277;48.722;8.736;2024-03-07T12:12:30;8.30;96.90
10459;DHT22;5277;48.722;8.736;2024-03-07T12:14:56;8.30;96.90
10459;DHT22;5277;48.722;8.736;2024-03-07T12:17:23;8.20;97.70
10459;DHT22;5277;48.722;8.736;2024-03-07T12:19:49;8.30;98.00
10459;DHT22;5277;48.722;8.736;2024-03-07T12:22:21;8.30;98.40
10459;DHT22;5277;48.722;8.736;2024-03-07T12:25:03;8.30;97.90
10459;DHT22;5277;48.722;8.736;2024-03-07T12:27:29;8.20;97.60
10459;DHT22;5277;48.722;8.736;2024-03-07T12:29:57;8.30;98.30
10459;DHT22;5277;48.722;8.736;2024-03-07T12:32:23;8.30;97.90
10459;DHT22;5277;48.722;8.736;2024-03-07T12:34:49;8.30;97.40
10459;DHT22;5277;48.722;8.736;2024-03-07T12:37:18;8.30;97.10
10459;DHT22;5277;48.722;8.736;2024-03-07T12:39:44;8.40;96.90
10459;DHT22;5277;48.722;8.736;2024-03-07T12:42:15;8.40;95.70
10459;DHT22;5277;48.722;8.736;2024-03-07T12:44:43;8.50;96.10
10459;DHT22;5277;48.722;8.736;2024-03-07T12:47:11;8.60;96.10
10459;DHT22;5277;48.722;8.736;2024-03-07T12:49:38;8.70;96.60
10459;DHT22;5277;48.722;8.736;2024-03-07T12:52:04;8.80;96.30
10459;DHT22;5277;48.722;8.736;2024-03-07T12:54:31;8.90;95.20
10459;DHT22;5277;48.722;8.736;2024-03-07T12:56:56;8.90;94.50
10459;DHT22;5277;48.722;8.736;2024-03-07T12:59:22;9.00;95.30
10459;DHT22;5277;48.722;8.736;2024-03-07T13:01:49;9.10;96.00
10459;DHT22;5277;48.722;8.736;2024-03-07T13:04:15;9.10;95.80
10459;DHT22;5277;48.722;8.736;2024-03-07T13:06:41;9.20;95.60
10459;DHT22;5277;48.722;8.736;2024-03-07T13:09:12;9.20;95.40
10459;DHT22;5277;48.722;8.736;2024-03-07T13:11:39;9.20;95.40
10459;DHT22;5277;48.722;8.736;2024-03-07T13:14:13;9.20;96.00
10459;DHT22;5277;48.722;8.736;2024-03-07T13:16:39;9.20;95.50
10459;DHT22;5277;48.722;8.736;2024-03-07T13:19:05;9.20;95.80
10459;DHT22;5277;48.722;8.736;2024-03-07T13:21:34;9.20;95.40
10459;DHT22;5277;48.722;8.736;2024-03-07T13:24:01;9.20;95.80
10459;DHT22;5277;48.722;8.736;2024-03-07T13:26:28;9.20;96.40
10459;DHT22;5277;48.722;8.736;2024-03-07T13:28:55;9.10;95.70
10459;DHT22;5277;48.722;8.736;2024-03-07T13:31:21;9.10;96.50
10459;DHT22;5277;48.722;8.736;2024-03-07T13:33:48;9.00;96.80
10459;DHT22;5277;48.722;8.736;2024-03-07T13:36:17;8.90;96.70
10459;DHT22;5277;48.722;8.736;2024-03-07T13:38:57;8.80;96.60
10459;DHT22;5277;48.722;8.736;2024-03-07T13:41:23;8.80;97.30
10459;DHT22;5277;48.722;8.736;2024-03-07T13:43:50;8.80;97.30
10459;DHT22;5277;48.722;8.736;2024-03-07T13:46:16;8.90;96.80
10459;DHT22;5277;48.722;8.736;2024-03-07T13:48:44;9.00;96.90
10459;DHT22;5277;48.722;8.736;2024-03-07T13:51:09;9.00;96.60
10459;DHT22;5277;48.722;8.736;2024-03-07T13:53:35;9.20;96.90
10459;DHT22;5277;48.722;8.736;2024-03-07T13:56:22;9.20;96.80
10459;DHT22;5277;48.722;8.736;2024-03-07T14:10:31;9.30;96.10
10459;DHT22;5277;48.722;8.736;2024-03-07T14:13:40;9.30;95.70
10459;DHT22;5277;48.722;8.736;2024-03-07T14:19:55;9.30;97.10
10459;DHT22;5277;48.722;8.736;2024-03-07T14:26:05;9.30;97.10
10459;DHT22;5277;48.722;8.736;2024-03-07T14:28:58;9.30;96.10
10459;DHT22;5277;48.722;8.736;2024-03-07T14:31:26;9.30;96.80
10459;DHT22;5277;48.722;8.736;2024-03-07T14:34:02;9.10;97.30
10459;DHT22;5277;48.722;8.736;2024-03-07T14:36:40;9.00;96.80
10459;DHT22;5277;48.722;8.736;2024-03-07T14:39:10;8.80;97.00
10459;DHT22;5277;48.722;8.736;2024-03-07T14:41:58;8.80;98.00
10459;DHT22;5277;48.722;8.736;2024-03-07T14:44:24;8.70;98.20
10459;DHT22;5277;48.722;8.736;2024-03-07T14:46:55;8.70;98.60
10459;DHT22;5277;48.722;8.736;2024-03-07T14:49:22;8.70;98.10
10459;DHT22;5277;48.722;8.736;2024-03-07T14:51:49;8.70;98.30
10459;DHT22;5277;48.722;8.736;2024-03-07T14:54:20;8.70;98.50
10459;DHT22;5277;48.722;8.736;2024-03-07T14:56:46;8.70;98.60
10459;DHT22;5277;48.722;8.736;2024-03-07T14:59:11;8.80;98.40
10459;DHT22;5277;48.722;8.736;2024-03-07T15:01:38;8.80;98.50
10459;DHT22;5277;48.722;8.736;2024-03-07T15:04:04;8.90;98.80
10459;DHT22;5277;48.722;8.736;2024-03-07T15:06:35;8.90;98.60
10459;DHT22;5277;48.722;8.736;2024-03-07T15:09:01;9.00;98.70
10459;DHT22;5277;48.722;8.736;2024-03-07T15:11:34;9.10;98.90
10459;DHT22;5277;48.722;8.736;2024-03-07T15:14:01;9.20;98.70
10459;DHT22;5277;48.722;8.736;2024-03-07T15:16:27;9.20;98.40
10459;DHT22;5277;48.722;8.736;2024-03-07T15:19:00;9.20;98.00
10459;DHT22;5277;48.722;8.736;2024-03-07T15:21:26;9.30;97.50
10459;DHT22;5277;48.722;8.736;2024-03-07T15:23:54;9.40;97.40
10459;DHT22;5277;48.722;8.736;2024-03-07T15:26:20;9.40;97.60
10459;DHT22;5277;48.722;8.736;2024-03-07T15:28:49;9.40;97.80
10459;DHT22;5277;48.722;8.736;2024-03-07T15:31:16;9.50;97.60
10459;DHT22;5277;48.722;8.736;2024-03-07T15:33:48;9.50;97.60
10459;DHT22;5277;48.722;8.736;2024-03-07T15:36:15;9.50;97.70
10459;DHT22;5277;48.722;8.736;2024-03-07T15:38:41;9.50;97.60
10459;DHT22;5277;48.722;8.736;2024-03-07T15:41:07;9.50;97.50
10459;DHT22;5277;48.722;8.736;2024-03-07T15:43:35;9.30;96.80
10459;DHT22;5277;48.722;8.736;2024-03-07T15:46:02;9.20;97.20
10459;DHT22;5277;48.722;8.736;2024-03-07T15:48:29;9.20;97.50
10459;DHT22;5277;48.722;8.736;2024-03-07T15:50:56;9.10;97.50
10459;DHT22;5277;48.722;8.736;2024-03-07T15:53:25;9.10;97.70
10459;DHT22;5277;48.722;8.736;2024-03-07T15:55:51;9.10;97.70
10459;DHT22;5277;48.722;8.736;2024-03-07T15:58:16;9.10;97.50
10459;DHT22;5277;48.722;8.736;2024-03-07T16:00:45;9.00;97.60
10459;DHT22;5277;48.722;8.736;2024-03-07T16:03:15;9.00;98.00
10459;DHT22;5277;48.722;8.736;2024-03-07T16:05:43;9.00;97.40
10459;DHT22;5277;48.722;8.736;2024-03-07T16:08:14;9.00;97.80
10459;DHT22;5277;48.722;8.736;2024-03-07T16:10:42;8.90;97.90
10459;DHT22;5277;48.722;8.736;2024-03-07T16:13:12;8.90;98.60
10459;DHT22;5277;48.722;8.736;2024-03-07T16:15:40;8.90;98.40
10459;DHT22;5277;48.722;8.736;2024-03-07T16:18:06;8.90;98.00
10459;DHT22;5277;48.722;8.736;2024-03-07T16:20:33;8.90;97.80
10459;DHT22;5277;48.722;8.736;2024-03-07T16:22:59;8.90;98.50
10459;DHT22;5277;48.722;8.736;2024-03-07T16:25:25;8.90;99.00
10459;DHT22;5277;48.722;8.736;2024-03-07T16:27:53;8.90;99.20
10459;DHT22;5277;48.722;8.736;2024-03-07T16:30:23;8.90;99.00
10459;DHT22;5277;48.722;8.736;2024-03-07T16:32:51;8.90;98.30
10459;DHT22;5277;48.722;8.736;2024-03-07T16:35:23;8.90;97.40